sensor_id;sensor_type;location;lat;lon;timestamp;pressure;altitude;pressure_sealevel;temperature;humidity
46079;BME280;31820;51.880;-0.518;2022-08-19T00:01:27;99370.75;;;21.42;100.00
46079;BME280;31820;51.880;-0.518;2022-08-19T00:03:57;99371.38;;;21.50;100.00
46079;BME280;31820;51.880;-0.518;2022-08-19T00:06:24;99371.16;;;21.45;100.00
46079;BME280;31820;51.880;-0.518;2022-08-19T00:08:50;99367.75;;;21.57;100.00
46079;BME280;31820;51.880;-0.518;2022-08-19T00:11:17;99362.28;;;21.57;100.00
46079;BME280;31820;51.880;-0.518;2022-08-19T00:13:43;99367.75;;;21.57;100.00
46079;BME280;31820;51.880;-0.518;2022-08-19T00:16:08;99365.03;;;21.50;100.00
46079;BME280;31820;51.880;-0.518;2022-08-19T00:18:34;99365.66;;;21.52;100.00
46079;BME280;31820;51.880;-0.518;2022-08-19T00:21:00;99364.41;;;21.48;100.00
46079;BME280;31820;51.880;-0.518;2022-08-19T00:23:26;99364.41;;;21.41;100.00
46079;BME280;31820;51.880;-0.518;2022-08-19T00:25:52;99355.13;;;21.42;100.00
46079;BME280;31820;51.880;-0.518;2022-08-19T00:28:18;99365.28;;;21.35;100.00
46079;BME280;31820;51.880;-0.518;2022-08-19T00:30:44;99365.47;;;21.40;100.00
46079;BME280;31820;51.880;-0.518;2022-08-19T00:33:10;99364.84;;;21.38;100.00
46079;BME280;31820;51.880;-0.518;2022-08-19T00:35:36;99354.91;;;21.44;100.00
46079;BME280;31820;51.880;-0.518;2022-08-19T00:38:04;99355.34;;;21.47;100.00
46079;BME280;31820;51.880;-0.518;2022-08-19T00:40:30;99361.25;;;21.44;100.00
46079;BME280;31820;51.880;-0.518;2022-08-19T00:42:56;99358.13;;;21.27;100.00
46079;BME280;31820;51.880;-0.518;2022-08-19T00:45:24;99363.81;;;21.12;100.00
46079;BME280;31820;51.880;-0.518;2022-08-19T00:47:51;99365.25;;;21.28;100.00
46079;BME280;31820;51.880;-0.518;2022-08-19T00:50:18;99358.09;;;21.34;100.00
46079;BME280;31820;51.880;-0.518;2022-08-19T00:52:47;99353.22;;;21.36;100.00
46079;BME280;31820;51.880;-0.518;2022-08-19T00:55:20;99345.44;;;21.33;100.00
46079;BME280;31820;51.880;-0.518;2022-08-19T00:57:51;99342.50;;;21.28;100.00
46079;BME280;31820;51.880;-0.518;2022-08-19T01:00:20;99344.22;;;21.22;100.00
46079;BME280;31820;51.880;-0.518;2022-08-19T01:02:46;99341.66;;;21.14;100.00
46079;BME280;31820;51.880;-0.518;2022-08-19T01:05:16;99349.50;;;21.24;100.00
46079;BME280;31820;51.880;-0.518;2022-08-19T01:07:44;99343.13;;;21.23;100.00
46079;BME280;31820;51.880;-0.518;2022-08-19T01:10:13;99343.16;;;21.17;100.00
46079;BME280;31820;51.880;-0.518;2022-08-19T01:12:39;99339.13;;;21.26;100.00
46079;BME280;31820;51.880;-0.518;2022-08-19T01:15:08;99350.34;;;21.18;100.00
46079;BME280;31820;51.880;-0.518;2022-08-19T01:17:36;99337.47;;;21.11;100.00
46079;BME280;31820;51.880;-0.518;2022-08-19T01:20:04;99345.47;;;21.20;100.00
46079;BME280;31820;51.880;-0.518;2022-08-19T01:22:58;99342.91;;;21.25;100.00
46079;BME280;31820;51.880;-0.518;2022-08-19T01:25:35;99339.34;;;21.11;100.00
46079;BME280;31820;51.880;-0.518;2022-08-19T01:28:03;99340.84;;;21.13;100.00
46079;BME280;31820;51.880;-0.518;2022-08-19T01:30:31;99338.53;;;21.10;100.00
46079;BME280;31820;51.880;-0.518;2022-08-19T01:32:59;99340.44;;;21.10;100.00
46079;BME280;31820;51.880;-0.518;2022-08-19T01:35:26;99348.63;;;21.17;100.00
46079;BME280;31820;51.880;-0.518;2022-08-19T01:38:00;99350.53;;;21.23;100.00
46079;BME280;31820;51.880;-0.518;2022-08-19T01:40:29;99332.81;;;21.19;100.00
46079;BME280;31820;51.880;-0.518;2022-08-19T01:42:57;99347.16;;;21.21;100.00
46079;BME280;31820;51.880;-0.518;2022-08-19T01:45:24;99345.91;;;21.17;100.00
46079;BME280;31820;51.880;-0.518;2022-08-19T01:47:51;99344.44;;;21.07;100.00
46079;BME280;31820;51.880;-0.518;2022-08-19T01:50:17;99337.69;;;21.17;100.00
46079;BME280;31820;51.880;-0.518;2022-08-19T01:52:43;99348.03;;;21.14;100.00
46079;BME280;31820;51.880;-0.518;2022-08-19T01:55:13;99346.72;;;21.17;100.00
46079;BME280;31820;51.880;-0.518;2022-08-19T01:57:41;99350.53;;;21.23;100.00
46079;BME280;31820;51.880;-0.518;2022-08-19T02:00:12;99349.28;;;21.25;100.00
46079;BME280;31820;51.880;-0.518;2022-08-19T02:02:37;99350.97;;;21.20;100.00
46079;BME280;31820;51.880;-0.518;2022-08-19T02:05:03;99344.00;;;21.17;100.00
46079;BME280;31820;51.880;-0.518;2022-08-19T02:07:29;99338.75;;;21.09;100.00
46079;BME280;31820;51.880;-0.518;2022-08-19T02:09:54;99334.28;;;21.21;100.00
46079;BME280;31820;51.880;-0.518;2022-08-19T02:12:21;99335.78;;;21.10;100.00
46079;BME280;31820;51.880;-0.518;2022-08-19T02:14:47;99343.38;;;21.08;100.00
46079;BME280;31820;51.880;-0.518;2022-08-19T02:17:13;99340.84;;;21.13;100.00
46079;BME280;31820;51.880;-0.518;2022-08-19T02:19:38;99342.97;;;21.11;100.00
46079;BME280;31820;51.880;-0.518;2022-08-19T02:22:04;99340.84;;;21.13;100.00
46079;BME280;31820;51.880;-0.518;2022-08-19T02:24:29;99344.88;;;20.98;100.00
46079;BME280;31820;51.880;-0.518;2022-08-19T02:26:55;99357.75;;;20.97;100.00
46079;BME280;31820;51.880;-0.518;2022-08-19T02:29:21;99346.75;;;21.04;100.00
46079;BME280;31820;51.880;-0.518;2022-08-19T02:31:46;99349.91;;;21.07;100.00
46079;BME280;31820;51.880;-0.518;2022-08-19T02:34:12;99345.09;;;20.96;100.00
46079;BME280;31820;51.880;-0.518;2022-08-19T02:36:37;99361.09;;;20.86;100.00
46079;BME280;31820;51.880;-0.518;2022-08-19T02:39:03;99357.53;;;20.78;100.00
46079;BME280;31820;51.880;-0.518;2022-08-19T02:41:32;99355.22;;;20.95;100.00
46079;BME280;31820;51.880;-0.518;2022-08-19T02:43:59;99356.03;;;20.96;100.00
46079;BME280;31820;51.880;-0.518;2022-08-19T02:46:28;99345.69;;;20.98;100.00
46079;BME280;31820;51.880;-0.518;2022-08-19T02:48:59;99350.16;;;20.99;100.00
46079;BME280;31820;51.880;-0.518;2022-08-19T02:51:31;99349.28;;;21.05;100.00
46079;BME280;31820;51.880;-0.518;2022-08-19T02:53:57;99347.59;;;21.04;100.00
46079;BME280;31820;51.880;-0.518;2022-08-19T02:56:23;99352.25;;;20.97;100.00
46079;BME280;31820;51.880;-0.518;2022-08-19T02:58:51;99363.66;;;20.94;100.00
46079;BME280;31820;51.880;-0.518;2022-08-19T03:01:26;99353.13;;;20.84;100.00
46079;BME280;31820;51.880;-0.518;2022-08-19T03:03:53;99352.88;;;20.86;100.00
46079;BME280;31820;51.880;-0.518;2022-08-19T03:06:19;99352.25;;;20.84;100.00
46079;BME280;31820;51.880;-0.518;2022-08-19T03:08:46;99344.66;;;20.92;100.00
46079;BME280;31820;51.880;-0.518;2022-08-19T03:11:14;99341.06;;;20.92;100.00
46079;BME280;31820;51.880;-0.518;2022-08-19T03:13:40;99353.75;;;20.86;100.00
46079;BME280;31820;51.880;-0.518;2022-08-19T03:16:06;99356.47;;;20.86;100.00
46079;BME280;31820;51.880;-0.518;2022-08-19T03:18:31;99356.28;;;20.81;100.00
46079;BME280;31820;51.880;-0.518;2022-08-19T03:20:57;99356.06;;;20.89;100.00
46079;BME280;31820;51.880;-0.518;2022-08-19T03:23:23;99352.47;;;20.82;100.00
46079;BME280;31820;51.880;-0.518;2022-08-19T03:25:51;99359.22;;;20.73;100.00
46079;BME280;31820;51.880;-0.518;2022-08-19T03:28:17;99353.94;;;20.65;100.00
46079;BME280;31820;51.880;-0.518;2022-08-19T03:30:55;99358.34;;;20.59;100.00
46079;BME280;31820;51.880;-0.518;2022-08-19T03:33:22;99352.47;;;20.75;100.00
46079;BME280;31820;51.880;-0.518;2022-08-19T03:38:31;99358.16;;;20.67;100.00
46079;BME280;31820;51.880;-0.518;2022-08-19T03:40:57;99363.66;;;20.67;100.00
46079;BME280;31820;51.880;-0.518;2022-08-19T03:43:23;99358.97;;;20.61;100.00
46079;BME280;31820;51.880;-0.518;2022-08-19T03:45:59;99365.69;;;20.58;100.00
46079;BME280;31820;51.880;-0.518;2022-08-19T03:48:25;99358.97;;;20.61;100.00
46079;BME280;31820;51.880;-0.518;2022-08-19T03:50:50;99370.97;;;20.60;100.00
46079;BME280;31820;51.880;-0.518;2022-08-19T03:53:16;99353.91;;;20.58;100.00
46079;BME280;31820;51.880;-0.518;2022-08-19T03:55:41;99363.41;;;20.62;100.00
46079;BME280;31820;51.880;-0.518;2022-08-19T03:58:07;99369.34;;;20.66;100.00
46079;BME280;31820;51.880;-0.518;2022-08-19T04:00:32;99359.41;;;20.71;100.00
46079;BME280;31820;51.880;-0.518;2022-08-19T04:02:59;99367.00;;;20.76;100.00
46079;BME280;31820;51.880;-0.518;2022-08-19T04:05:26;99361.53;;;20.69;100.00
46079;BME280;31820;51.880;-0.518;2022-08-19T04:07:53;99365.31;;;20.68;100.00
46079;BME280;31820;51.880;-0.518;2022-08-19T04:10:20;99370.78;;;20.68;100.00
46079;BME280;31820;51.880;-0.518;2022-08-19T04:12:45;99372.03;;;20.59;100.00
46079;BME280;31820;51.880;-0.518;2022-08-19T04:15:11;99370.75;;;20.61;100.00
46079;BME280;31820;51.880;-0.518;2022-08-19T04:17:37;99372.69;;;20.68;100.00
46079;BME280;31820;51.880;-0.518;2022-08-19T04:20:02;99371.03;;;20.73;100.00
46079;BME280;31820;51.880;-0.518;2022-08-19T04:22:28;99374.19;;;20.84;100.00
46079;BME280;31820;51.880;-0.518;2022-08-19T04:24:55;99377.53;;;20.86;100.00
46079;BME280;31820;51.880;-0.518;2022-08-19T04:27:20;99381.56;;;20.90;100.00
46079;BME280;31820;51.880;-0.518;2022-08-19T04:29:46;99375.03;;;20.91;100.00
46079;BME280;31820;51.880;-0.518;2022-08-19T04:32:13;99376.91;;;20.84;100.00
46079;BME280;31820;51.880;-0.518;2022-08-19T04:34:40;99381.78;;;20.75;100.00
46079;BME280;31820;51.880;-0.518;2022-08-19T04:37:08;99384.06;;;20.71;100.00
46079;BME280;31820;51.880;-0.518;2022-08-19T04:39:38;99378.41;;;20.80;100.00
46079;BME280;31820;51.880;-0.518;2022-08-19T04:42:22;99376.50;;;20.73;100.00
46079;BME280;31820;51.880;-0.518;2022-08-19T04:45:09;99374.81;;;20.79;100.00
46079;BME280;31820;51.880;-0.518;2022-08-19T04:47:39;99378.41;;;20.80;100.00
46079;BME280;31820;51.880;-0.518;2022-08-19T04:50:06;99393.56;;;20.75;100.00
46079;BME280;31820;51.880;-0.518;2022-08-19T04:52:31;99384.72;;;20.73;100.00
46079;BME280;31820;51.880;-0.518;2022-08-19T04:54:57;99387.69;;;20.72;100.00
46079;BME280;31820;51.880;-0.518;2022-08-19T04:57:23;99394.00;;;20.72;100.00
46079;BME280;31820;51.880;-0.518;2022-08-19T04:59:53;99396.94;;;20.77;100.00
46079;BME280;31820;51.880;-0.518;2022-08-19T05:02:19;99408.75;;;20.85;100.00
46079;BME280;31820;51.880;-0.518;2022-08-19T05:04:45;99408.56;;;20.80;100.00
46079;BME280;31820;51.880;-0.518;2022-08-19T05:07:11;99410.00;;;20.69;100.00
46079;BME280;31820;51.880;-0.518;2022-08-19T05:09:37;99411.22;;;20.53;100.00
46079;BME280;31820;51.880;-0.518;2022-08-19T05:12:03;99415.09;;;20.72;100.00
46079;BME280;31820;51.880;-0.518;2022-08-19T05:14:28;99414.22;;;20.71;100.00
46079;BME280;31820;51.880;-0.518;2022-08-19T05:16:54;99407.06;;;20.70;100.00
46079;BME280;31820;51.880;-0.518;2022-08-19T05:19:20;99406.22;;;20.76;100.00
46079;BME280;31820;51.880;-0.518;2022-08-19T05:22:03;99412.13;;;20.87;100.00
46079;BME280;31820;51.880;-0.518;2022-08-19T05:24:47;99415.72;;;20.74;100.00
46079;BME280;31820;51.880;-0.518;2022-08-19T05:27:13;99418.44;;;20.74;100.00
46079;BME280;31820;51.880;-0.518;2022-08-19T05:29:39;99424.38;;;20.91;100.00
46079;BME280;31820;51.880;-0.518;2022-08-19T05:32:05;99422.47;;;20.98;100.00
46079;BME280;31820;51.880;-0.518;2022-08-19T05:34:34;99425.41;;;20.96;100.00
46079;BME280;31820;51.880;-0.518;2022-08-19T05:37:02;99436.16;;;20.98;100.00
46079;BME280;31820;51.880;-0.518;2022-08-19T05:39:29;99435.75;;;20.94;100.00
46079;BME280;31820;51.880;-0.518;2022-08-19T05:41:56;99435.75;;;21.01;100.00
46079;BME280;31820;51.880;-0.518;2022-08-19T05:44:24;99428.38;;;21.08;100.00
46079;BME280;31820;51.880;-0.518;2022-08-19T05:46:50;99431.72;;;21.17;100.00
46079;BME280;31820;51.880;-0.518;2022-08-19T05:49:19;99426.88;;;21.32;100.00
46079;BME280;31820;51.880;-0.518;2022-08-19T05:51:46;99421.56;;;21.78;100.00
46079;BME280;31820;51.880;-0.518;2022-08-19T05:54:12;99433.13;;;24.15;96.99
46079;BME280;31820;51.880;-0.518;2022-08-19T05:56:40;99422.34;;;23.51;93.81
46079;BME280;31820;51.880;-0.518;2022-08-19T05:59:06;99426.09;;;23.13;97.54
46079;BME280;31820;51.880;-0.518;2022-08-19T06:01:35;99427.38;;;22.47;100.00
46079;BME280;31820;51.880;-0.518;2022-08-19T06:04:01;99438.47;;;22.20;100.00
46079;BME280;31820;51.880;-0.518;2022-08-19T06:06:27;99436.94;;;21.85;100.00
46079;BME280;31820;51.880;-0.518;2022-08-19T06:08:53;99432.31;;;21.73;100.00
46079;BME280;31820;51.880;-0.518;2022-08-19T06:11:24;99433.41;;;21.58;100.00
46079;BME280;31820;51.880;-0.518;2022-08-19T06:13:52;99439.75;;;21.52;100.00
46079;BME280;31820;51.880;-0.518;2022-08-19T06:16:20;99430.25;;;21.28;100.00
46079;BME280;31820;51.880;-0.518;2022-08-19T06:18:52;99443.16;;;21.21;100.00
46079;BME280;31820;51.880;-0.518;2022-08-19T06:21:22;99435.75;;;21.08;100.00
46079;BME280;31820;51.880;-0.518;2022-08-19T06:23:48;99446.28;;;20.91;100.00
46079;BME280;31820;51.880;-0.518;2022-08-19T06:26:15;99454.09;;;20.94;100.00
46079;BME280;31820;51.880;-0.518;2022-08-19T06:28:41;99447.34;;;21.17;100.00
46079;BME280;31820;51.880;-0.518;2022-08-19T06:31:10;99455.06;;;23.41;100.00
46079;BME280;31820;51.880;-0.518;2022-08-19T06:33:37;99470.00;;;25.82;79.69
46079;BME280;31820;51.880;-0.518;2022-08-19T06:36:04;99456.25;;;23.70;90.22
46079;BME280;31820;51.880;-0.518;2022-08-19T06:38:29;99449.84;;;23.01;96.76
46079;BME280;31820;51.880;-0.518;2022-08-19T06:41:05;99453.66;;;22.74;99.50
46079;BME280;31820;51.880;-0.518;2022-08-19T06:43:31;99456.84;;;22.71;99.77
46079;BME280;31820;51.880;-0.518;2022-08-19T06:45:56;99469.16;;;25.58;84.72
46079;BME280;31820;51.880;-0.518;2022-08-19T06:48:22;99444.09;;;28.01;69.84
46079;BME280;31820;51.880;-0.518;2022-08-19T06:50:47;99461.25;;;28.42;64.80
46079;BME280;31820;51.880;-0.518;2022-08-19T06:53:15;99460.19;;;28.97;62.90
46079;BME280;31820;51.880;-0.518;2022-08-19T06:55:40;99470.88;;;29.16;61.73
46079;BME280;31820;51.880;-0.518;2022-08-19T06:58:06;99463.03;;;28.09;60.72
46079;BME280;31820;51.880;-0.518;2022-08-19T07:00:32;99465.22;;;28.07;62.17
46079;BME280;31820;51.880;-0.518;2022-08-19T07:02:57;99474.19;;;28.14;64.74
46079;BME280;31820;51.880;-0.518;2022-08-19T07:05:24;99470.00;;;26.06;70.33
46079;BME280;31820;51.880;-0.518;2022-08-19T07:07:49;99456.44;;;24.80;75.53
46079;BME280;31820;51.880;-0.518;2022-08-19T07:10:15;99471.13;;;23.88;80.36
46079;BME280;31820;51.880;-0.518;2022-08-19T07:12:40;99469.78;;;23.53;82.74
46079;BME280;31820;51.880;-0.518;2022-08-19T07:15:06;99480.22;;;23.19;84.99
46079;BME280;31820;51.880;-0.518;2022-08-19T07:17:33;99473.88;;;22.87;86.90
46079;BME280;31820;51.880;-0.518;2022-08-19T07:20:05;99487.03;;;22.78;88.23
46079;BME280;31820;51.880;-0.518;2022-08-19T07:22:32;99476.19;;;22.51;90.79
46079;BME280;31820;51.880;-0.518;2022-08-19T07:24:59;99484.72;;;22.36;91.43
46079;BME280;31820;51.880;-0.518;2022-08-19T07:27:25;99488.78;;;22.20;92.43
46079;BME280;31820;51.880;-0.518;2022-08-19T07:29:52;99480.47;;;22.79;88.93
46079;BME280;31820;51.880;-0.518;2022-08-19T07:32:17;99489.59;;;22.73;88.79
46079;BME280;31820;51.880;-0.518;2022-08-19T07:34:43;99488.16;;;23.34;86.94
46079;BME280;31820;51.880;-0.518;2022-08-19T07:37:08;99499.88;;;23.48;84.24
46079;BME280;31820;51.880;-0.518;2022-08-19T07:39:36;99500.06;;;23.53;83.56
46079;BME280;31820;51.880;-0.518;2022-08-19T07:42:07;99495.47;;;23.65;83.19
46079;BME280;31820;51.880;-0.518;2022-08-19T07:44:33;99490.88;;;23.59;83.07
46079;BME280;31820;51.880;-0.518;2022-08-19T07:47:00;99489.94;;;23.47;83.33
46079;BME280;31820;51.880;-0.518;2022-08-19T07:49:26;99490.53;;;23.74;82.26
46079;BME280;31820;51.880;-0.518;2022-08-19T07:51:57;99481.88;;;23.71;81.83
46079;BME280;31820;51.880;-0.518;2022-08-19T07:54:25;99495.69;;;23.89;81.10
46079;BME280;31820;51.880;-0.518;2022-08-19T07:56:52;99494.81;;;23.45;81.98
46079;BME280;31820;51.880;-0.518;2022-08-19T07:59:19;99495.09;;;23.11;83.31
46079;BME280;31820;51.880;-0.518;2022-08-19T08:01:46;99503.25;;;22.93;84.04
46079;BME280;31820;51.880;-0.518;2022-08-19T08:04:12;99501.97;;;22.89;84.27
46079;BME280;31820;51.880;-0.518;2022-08-19T08:06:56;99507.75;;;22.81;83.44
46079;BME280;31820;51.880;-0.518;2022-08-19T08:09:41;99505.84;;;22.81;82.77
46079;BME280;31820;51.880;-0.518;2022-08-19T08:12:17;99509.72;;;22.67;82.70
46079;BME280;31820;51.880;-0.518;2022-08-19T08:14:47;99515.41;;;23.04;81.04
46079;BME280;31820;51.880;-0.518;2022-08-19T08:17:15;99531.28;;;22.70;81.63
46079;BME280;31820;51.880;-0.518;2022-08-19T08:19:42;99529.59;;;23.01;79.60
46079;BME280;31820;51.880;-0.518;2022-08-19T08:22:08;99520.97;;;22.97;77.88
46079;BME280;31820;51.880;-0.518;2022-08-19T08:24:54;99517.09;;;22.73;78.71
46079;BME280;31820;51.880;-0.518;2022-08-19T08:27:24;99519.34;;;22.83;78.67
46079;BME280;31820;51.880;-0.518;2022-08-19T08:29:49;99505.44;;;22.77;76.80
46079;BME280;31820;51.880;-0.518;2022-08-19T08:32:15;99520.84;;;22.85;76.24
46079;BME280;31820;51.880;-0.518;2022-08-19T08:34:41;99516.13;;;22.92;73.96
46079;BME280;31820;51.880;-0.518;2022-08-19T08:37:07;99522.28;;;22.94;74.34
46079;BME280;31820;51.880;-0.518;2022-08-19T08:39:32;99517.94;;;22.73;76.29
46079;BME280;31820;51.880;-0.518;2022-08-19T08:42:08;99523.06;;;22.63;75.69
46079;BME280;31820;51.880;-0.518;2022-08-19T08:47:25;99513.66;;;22.84;71.94
46079;BME280;31820;51.880;-0.518;2022-08-19T08:50:00;99504.50;;;22.90;74.24
46079;BME280;31820;51.880;-0.518;2022-08-19T08:52:30;99505.69;;;23.08;73.33
46079;BME280;31820;51.880;-0.518;2022-08-19T08:55:00;99512.19;;;23.45;71.26
46079;BME280;31820;51.880;-0.518;2022-08-19T08:57:33;99521.25;;;23.21;70.65
46079;BME280;31820;51.880;-0.518;2022-08-19T09:00:02;99516.19;;;22.47;71.76
46079;BME280;31820;51.880;-0.518;2022-08-19T09:02:30;99521.50;;;22.35;73.51
46079;BME280;31820;51.880;-0.518;2022-08-19T09:04:56;99525.44;;;22.53;73.82
46079;BME280;31820;51.880;-0.518;2022-08-19T09:09:52;99514.56;;;23.03;72.03
46079;BME280;31820;51.880;-0.518;2022-08-19T09:12:33;99520.72;;;22.67;69.90
46079;BME280;31820;51.880;-0.518;2022-08-19T09:15:09;99527.00;;;22.22;73.94
46079;BME280;31820;51.880;-0.518;2022-08-19T09:17:36;99530.03;;;22.66;72.45
46079;BME280;31820;51.880;-0.518;2022-08-19T09:20:17;99523.38;;;22.80;71.00
46079;BME280;31820;51.880;-0.518;2022-08-19T09:22:43;99528.44;;;22.90;72.39
46079;BME280;31820;51.880;-0.518;2022-08-19T09:25:11;99521.25;;;23.21;70.17
46079;BME280;31820;51.880;-0.518;2022-08-19T09:27:39;99514.69;;;22.45;71.41
46079;BME280;31820;51.880;-0.518;2022-08-19T09:30:06;99518.56;;;22.17;71.56
46079;BME280;31820;51.880;-0.518;2022-08-19T09:32:33;99530.84;;;22.14;72.08
46079;BME280;31820;51.880;-0.518;2022-08-19T09:34:58;99530.09;;;22.52;71.16
46079;BME280;31820;51.880;-0.518;2022-08-19T09:37:26;99532.06;;;22.77;68.94
46079;BME280;31820;51.880;-0.518;2022-08-19T09:39:52;99542.66;;;22.73;67.22
46079;BME280;31820;51.880;-0.518;2022-08-19T09:42:17;99535.91;;;22.76;68.55
46079;BME280;31820;51.880;-0.518;2022-08-19T09:44:43;99537.34;;;22.79;69.60
46079;BME280;31820;51.880;-0.518;2022-08-19T09:47:10;99544.72;;;22.85;67.97
46079;BME280;31820;51.880;-0.518;2022-08-19T09:49:36;99535.63;;;22.84;67.60
46079;BME280;31820;51.880;-0.518;2022-08-19T09:52:03;99537.69;;;22.95;64.72
46079;BME280;31820;51.880;-0.518;2022-08-19T09:54:28;99541.91;;;22.53;69.48
46079;BME280;31820;51.880;-0.518;2022-08-19T09:56:55;99544.59;;;22.73;67.76
46079;BME280;31820;51.880;-0.518;2022-08-19T09:59:22;99541.97;;;22.85;67.03
46079;BME280;31820;51.880;-0.518;2022-08-19T10:01:48;99534.75;;;22.90;66.85
46079;BME280;31820;51.880;-0.518;2022-08-19T10:04:13;99544.66;;;22.98;64.91
46079;BME280;31820;51.880;-0.518;2022-08-19T10:06:39;99540.56;;;23.14;63.46
46079;BME280;31820;51.880;-0.518;2022-08-19T10:09:08;99542.94;;;23.10;61.56
46079;BME280;31820;51.880;-0.518;2022-08-19T10:11:34;99544.81;;;23.10;63.09
46079;BME280;31820;51.880;-0.518;2022-08-19T10:14:01;99539.34;;;22.65;58.21
46079;BME280;31820;51.880;-0.518;2022-08-19T10:16:27;99552.75;;;22.41;63.07
46079;BME280;31820;51.880;-0.518;2022-08-19T10:18:53;99552.44;;;22.63;61.61
46079;BME280;31820;51.880;-0.518;2022-08-19T10:21:22;99543.09;;;22.70;61.32
46079;BME280;31820;51.880;-0.518;2022-08-19T10:23:50;99544.72;;;22.85;56.63
46079;BME280;31820;51.880;-0.518;2022-08-19T10:26:21;99546.06;;;22.69;59.34
46079;BME280;31820;51.880;-0.518;2022-08-19T10:28:48;99556.75;;;22.45;56.61
46079;BME280;31820;51.880;-0.518;2022-08-19T10:31:16;99566.19;;;22.63;53.60
46079;BME280;31820;51.880;-0.518;2022-08-19T10:33:46;99556.28;;;22.55;54.76
46079;BME280;31820;51.880;-0.518;2022-08-19T10:36:20;99557.06;;;22.69;53.80
46079;BME280;31820;51.880;-0.518;2022-08-19T10:38:50;99552.84;;;22.73;54.34
46079;BME280;31820;51.880;-0.518;2022-08-19T10:41:20;99550.25;;;22.78;50.01
46079;BME280;31820;51.880;-0.518;2022-08-19T10:43:47;99551.31;;;22.84;54.48
46079;BME280;31820;51.880;-0.518;2022-08-19T10:46:16;99551.03;;;22.53;54.66
46079;BME280;31820;51.880;-0.518;2022-08-19T10:48:42;99560.75;;;22.49;52.29
46079;BME280;31820;51.880;-0.518;2022-08-19T10:51:09;99572.56;;;22.56;54.17
46079;BME280;31820;51.880;-0.518;2022-08-19T10:53:53;99572.63;;;22.88;54.83
46079;BME280;31820;51.880;-0.518;2022-08-19T10:56:19;99563.81;;;22.73;53.19
46079;BME280;31820;51.880;-0.518;2022-08-19T10:59:04;99560.50;;;22.57;54.91
46079;BME280;31820;51.880;-0.518;2022-08-19T11:01:31;99563.44;;;22.63;51.13
46079;BME280;31820;51.880;-0.518;2022-08-19T11:04:02;99574.56;;;22.81;53.93
46079;BME280;31820;51.880;-0.518;2022-08-19T11:06:28;99574.59;;;22.74;50.73
46079;BME280;31820;51.880;-0.518;2022-08-19T11:08:55;99563.22;;;22.71;50.25
46079;BME280;31820;51.880;-0.518;2022-08-19T11:11:21;99566.41;;;22.68;46.83
46079;BME280;31820;51.880;-0.518;2022-08-19T11:13:47;99562.63;;;22.55;50.26
46079;BME280;31820;51.880;-0.518;2022-08-19T11:16:24;99565.28;;;22.82;51.17
46079;BME280;31820;51.880;-0.518;2022-08-19T11:18:58;99573.22;;;22.97;48.59
46079;BME280;31820;51.880;-0.518;2022-08-19T11:21:32;99576.75;;;23.11;49.25
46079;BME280;31820;51.880;-0.518;2022-08-19T11:24:00;99564.13;;;22.97;47.78
46079;BME280;31820;51.880;-0.518;2022-08-19T11:26:27;99581.03;;;23.00;45.86
46079;BME280;31820;51.880;-0.518;2022-08-19T11:28:53;99574.00;;;22.72;40.07
46079;BME280;31820;51.880;-0.518;2022-08-19T11:31:24;99566.84;;;22.65;43.17
46079;BME280;31820;51.880;-0.518;2022-08-19T11:33:49;99569.31;;;22.73;40.26
46079;BME280;31820;51.880;-0.518;2022-08-19T11:36:20;99565.53;;;22.74;41.02
46079;BME280;31820;51.880;-0.518;2022-08-19T11:38:49;99561.94;;;22.67;42.30
46079;BME280;31820;51.880;-0.518;2022-08-19T11:41:17;99566.06;;;22.89;41.87
46079;BME280;31820;51.880;-0.518;2022-08-19T11:43:43;99564.09;;;23.03;43.04
46079;BME280;31820;51.880;-0.518;2022-08-19T11:46:11;99566.41;;;22.61;39.48
46079;BME280;31820;51.880;-0.518;2022-08-19T11:48:38;99566.63;;;22.66;42.23
46079;BME280;31820;51.880;-0.518;2022-08-19T11:51:08;99569.25;;;22.86;41.86
46079;BME280;31820;51.880;-0.518;2022-08-19T11:53:34;99565.63;;;22.92;43.68
46079;BME280;31820;51.880;-0.518;2022-08-19T11:55:59;99566.66;;;22.98;43.19
46079;BME280;31820;51.880;-0.518;2022-08-19T11:58:25;99574.31;;;22.89;42.06
46079;BME280;31820;51.880;-0.518;2022-08-19T12:00:51;99561.53;;;23.08;42.84
46079;BME280;31820;51.880;-0.518;2022-08-19T12:03:17;99570.38;;;23.17;42.49
46079;BME280;31820;51.880;-0.518;2022-08-19T12:05:44;99564.59;;;23.25;42.14
46079;BME280;31820;51.880;-0.518;2022-08-19T12:08:09;99572.31;;;23.17;40.25
46079;BME280;31820;51.880;-0.518;2022-08-19T12:10:36;99566.78;;;22.71;40.01
46079;BME280;31820;51.880;-0.518;2022-08-19T12:13:02;99557.59;;;22.39;40.25
46079;BME280;31820;51.880;-0.518;2022-08-19T12:15:28;99568.88;;;22.76;42.17
46079;BME280;31820;51.880;-0.518;2022-08-19T12:17:55;99568.81;;;22.89;43.48
46079;BME280;31820;51.880;-0.518;2022-08-19T12:20:23;99562.81;;;23.06;42.73
46079;BME280;31820;51.880;-0.518;2022-08-19T12:22:48;99563.34;;;23.21;39.76
46079;BME280;31820;51.880;-0.518;2022-08-19T12:25:14;99563.22;;;23.09;40.20
46079;BME280;31820;51.880;-0.518;2022-08-19T12:27:40;99571.03;;;22.74;40.92
46079;BME280;31820;51.880;-0.518;2022-08-19T12:30:08;99566.78;;;22.71;40.09
46079;BME280;31820;51.880;-0.518;2022-08-19T12:32:34;99571.94;;;23.00;42.53
46079;BME280;31820;51.880;-0.518;2022-08-19T12:35:00;99568.84;;;23.28;42.60
46079;BME280;31820;51.880;-0.518;2022-08-19T12:37:26;99569.06;;;23.26;41.70
46079;BME280;31820;51.880;-0.518;2022-08-19T12:39:52;99564.72;;;23.12;38.91
46079;BME280;31820;51.880;-0.518;2022-08-19T12:42:18;99555.63;;;23.05;41.06
46079;BME280;31820;51.880;-0.518;2022-08-19T12:44:44;99548.72;;;22.89;40.28
46079;BME280;31820;51.880;-0.518;2022-08-19T12:47:12;99550.66;;;22.88;39.80
46079;BME280;31820;51.880;-0.518;2022-08-19T12:49:39;99544.59;;;23.05;39.96
46079;BME280;31820;51.880;-0.518;2022-08-19T12:52:07;99549.50;;;23.03;40.28
46079;BME280;31820;51.880;-0.518;2022-08-19T12:54:34;99547.53;;;23.17;41.77
46079;BME280;31820;51.880;-0.518;2022-08-19T12:57:00;99551.22;;;22.97;39.59